Time;durP1;ratioP1;P1;durP2;ratioP2;P2;SDS_P1;SDS_P2;PMS_P1;PMS_P2;Temp;Humidity;BMP_temperature;BMP_pressure;BME280_temperature;BME280_humidity;BME280_pressure;Samples;Min_cycle;Max_cycle;Signal;HPM_P1;HPM_P2
2024/03/19 00:00:19;;;;;;;10.82;4.53;;;6.60;99.90;;;;;;5038548;28;20434;-80
2024/03/19 00:02:46;;;;;;;9.38;4.60;;;6.60;99.90;;;;;;5033942;28;20022;-79
2024/03/19 00:05:11;;;;;;;8.05;4.65;;;6.60;99.90;;;;;;5031769;28;20049;-80
2024/03/19 00:07:37;;;;;;;7.55;4.20;;;6.50;99.90;;;;;;5031966;28;20037;-81
2024/03/19 00:10:03;;;;;;;9.52;4.43;;;6.50;99.90;;;;;;5033421;28;20031;-80
2024/03/19 00:12:32;;;;;;;11.35;4.53;;;6.60;99.90;;;;;;5039188;28;20033;-80
2024/03/19 00:15:01;;;;;;;9.40;4.93;;;6.50;99.90;;;;;;5033783;28;20051;-80
2024/03/19 00:17:26;;;;;;;7.55;4.25;;;6.60;99.90;;;;;;5032080;28;20508;-80
2024/03/19 00:19:52;;;;;;;7.35;4.22;;;6.60;99.90;;;;;;5032252;28;20022;-80
2024/03/19 00:22:18;;;;;;;9.52;4.40;;;6.60;99.90;;;;;;5032450;28;20025;-79
2024/03/19 00:24:44;;;;;;;8.80;4.20;;;6.60;99.90;;;;;;5040023;28;20052;-79
2024/03/19 00:27:09;;;;;;;9.30;4.68;;;6.60;99.90;;;;;;5033623;28;20032;-80
2024/03/19 00:29:35;;;;;;;8.93;4.22;;;6.60;99.90;;;;;;5031867;28;20029;-80
2024/03/19 00:32:01;;;;;;;8.27;4.40;;;6.60;99.90;;;;;;5033552;28;20026;-79
2024/03/19 00:34:27;;;;;;;8.75;4.38;;;6.60;99.90;;;;;;5032917;28;20060;-80
2024/03/19 00:36:52;;;;;;;7.85;4.47;;;6.60;99.90;;;;;;5048649;28;20017;-80
2024/03/19 00:39:21;;;;;;;8.48;4.45;;;6.60;99.90;;;;;;5032866;28;20041;-80
2024/03/19 00:41:47;;;;;;;8.63;4.43;;;6.70;99.90;;;;;;5037325;28;20112;-80
2024/03/19 00:44:13;;;;;;;10.48;4.30;;;6.70;99.90;;;;;;5033439;28;20120;-79
2024/03/19 00:46:38;;;;;;;7.25;4.05;;;6.60;99.90;;;;;;5032887;28;20124;-80
2024/03/19 00:49:05;;;;;;;7.18;3.72;;;6.70;99.90;;;;;;5043287;28;20032;-79
2024/03/19 00:51:31;;;;;;;8.63;4.47;;;6.70;99.90;;;;;;5032343;28;20060;-79
2024/03/19 00:53:57;;;;;;;7.07;4.07;;;6.60;99.90;;;;;;5032421;28;20057;-80
2024/03/19 00:56:22;;;;;;;7.35;4.38;;;6.60;99.90;;;;;;5045792;28;20024;-81
2024/03/19 00:58:48;;;;;;;8.88;3.90;;;6.60;99.90;;;;;;5048040;28;20503;-80
2024/03/19 01:01:14;;;;;;;8.52;4.15;;;6.60;99.90;;;;;;5032386;28;20087;-80
2024/03/19 01:03:39;;;;;;;9.15;3.88;;;6.60;99.90;;;;;;5049223;28;20056;-79
2024/03/19 01:06:05;;;;;;;7.55;4.18;;;6.70;99.90;;;;;;5037441;28;20040;-80
2024/03/19 01:08:30;;;;;;;7.30;3.72;;;6.60;99.90;;;;;;5042599;28;20029;-80
2024/03/19 01:11:01;;;;;;;7.32;4.47;;;6.60;99.90;;;;;;5037000;28;20041;-80
2024/03/19 01:13:26;;;;;;;7.68;3.78;;;6.60;99.90;;;;;;5041170;28;20429;-79
2024/03/19 01:15:52;;;;;;;8.32;3.78;;;6.60;99.90;;;;;;5034325;28;20030;-80
2024/03/19 01:18:17;;;;;;;8.50;4.47;;;6.50;99.90;;;;;;5047352;28;20037;-79
2024/03/19 01:20:43;;;;;;;10.05;4.35;;;6.60;99.90;;;;;;5024568;28;20029;-79
2024/03/19 01:23:09;;;;;;;7.53;4.07;;;6.50;99.90;;;;;;5032923;28;20113;-79
2024/03/19 01:25:34;;;;;;;9.65;3.97;;;6.50;99.90;;;;;;5031224;28;20083;-79
2024/03/19 01:28:00;;;;;;;8.93;4.00;;;6.50;99.90;;;;;;5031794;28;20029;-79
2024/03/19 01:30:25;;;;;;;8.80;4.40;;;6.50;99.90;;;;;;5031789;28;20033;-79
2024/03/19 01:32:51;;;;;;;8.77;3.88;;;6.50;99.90;;;;;;5048849;28;20036;-79
2024/03/19 01:35:16;;;;;;;8.75;4.07;;;6.50;99.90;;;;;;5045972;28;20038;-79
2024/03/19 01:37:42;;;;;;;7.47;3.97;;;6.40;99.90;;;;;;5035833;28;20095;-79
2024/03/19 01:40:08;;;;;;;11.48;4.30;;;6.40;99.90;;;;;;5046709;28;20136;-79
2024/03/19 01:42:34;;;;;;;8.65;4.00;;;6.30;99.90;;;;;;5054769;28;20056;-79
2024/03/19 01:45:11;;;;;;;8.70;4.00;;;6.30;99.90;;;;;;5032897;28;20037;-78
2024/03/19 01:47:38;;;;;;;8.35;3.65;;;6.30;99.90;;;;;;5029011;28;20030;-79
2024/03/19 01:50:09;;;;;;;7.38;3.55;;;6.20;99.90;;;;;;5033112;28;20053;-79
2024/03/19 01:52:47;;;;;;;8.18;3.92;;;6.30;99.90;;;;;;5046984;28;20037;-79
2024/03/19 01:55:15;;;;;;;6.80;3.72;;;6.20;99.90;;;;;;5033755;28;20020;-79
2024/03/19 01:57:44;;;;;;;7.25;4.35;;;6.20;99.90;;;;;;5035205;28;20049;-79
2024/03/19 02:00:10;;;;;;;10.05;4.28;;;6.20;99.90;;;;;;5035401;28;20041;-79
2024/03/19 02:02:39;;;;;;;11.27;4.40;;;6.10;99.90;;;;;;5030894;28;20029;-79
2024/03/19 02:05:07;;;;;;;12.07;4.53;;;6.10;99.90;;;;;;5044520;28;20089;-79
2024/03/19 02:07:33;;;;;;;10.68;4.38;;;6.10;99.90;;;;;;5036307;28;20036;-79
2024/03/19 02:09:59;;;;;;;8.63;3.97;;;6.10;99.90;;;;;;5032467;28;20377;-79
2024/03/19 02:12:26;;;;;;;8.77;4.25;;;6.10;99.90;;;;;;5031444;28;20038;-79
2024/03/19 02:14:52;;;;;;;6.80;3.47;;;6.10;99.90;;;;;;5030761;28;20091;-80
2024/03/19 02:17:18;;;;;;;8.27;3.90;;;6.10;99.90;;;;;;5031043;28;20471;-79
2024/03/19 02:19:44;;;;;;;7.65;4.10;;;6.20;99.90;;;;;;5032510;28;20140;-79
2024/03/19 02:22:11;;;;;;;9.05;4.22;;;6.20;99.90;;;;;;5036457;28;20018;-79
2024/03/19 02:24:44;;;;;;;9.25;5.05;;;6.20;99.90;;;;;;5043338;28;20033;-80
2024/03/19 02:27:10;;;;;;;5.70;3.60;;;6.20;99.90;;;;;;5046676;28;20025;-80
2024/03/19 02:29:36;;;;;;;8.15;3.67;;;6.20;99.90;;;;;;5033867;28;20025;-80
2024/03/19 02:32:01;;;;;;;7.70;4.00;;;6.20;99.90;;;;;;5034315;28;20492;-80
2024/03/19 02:34:27;;;;;;;7.38;4.07;;;6.20;99.90;;;;;;5035622;28;20385;-80
2024/03/19 02:36:53;;;;;;;6.53;3.90;;;6.10;99.90;;;;;;5035168;28;20095;-79
2024/03/19 02:39:19;;;;;;;10.85;4.00;;;6.10;99.90;;;;;;5040759;28;20029;-79
2024/03/19 02:41:44;;;;;;;10.43;4.07;;;6.00;99.90;;;;;;5049022;28;20084;-79
2024/03/19 02:44:10;;;;;;;7.15;4.10;;;6.00;99.90;;;;;;5045782;28;20029;-79
2024/03/19 02:46:36;;;;;;;8.05;4.20;;;6.00;99.90;;;;;;5051109;28;20055;-80
2024/03/19 02:49:02;;;;;;;9.57;4.28;;;5.90;99.90;;;;;;5043902;28;20481;-80
2024/03/19 02:51:29;;;;;;;7.80;4.80;;;5.90;99.90;;;;;;5035494;28;20405;-80
2024/03/19 02:53:54;;;;;;;8.20;4.05;;;5.90;99.90;;;;;;5035570;28;20025;-80
2024/03/19 02:56:20;;;;;;;9.68;4.13;;;5.80;99.90;;;;;;5035081;28;20441;-79
2024/03/19 02:58:46;;;;;;;8.27;4.18;;;5.70;99.90;;;;;;5035536;28;20021;-79
2024/03/19 03:01:11;;;;;;;7.38;4.00;;;5.70;99.90;;;;;;5035491;28;20485;-79
2024/03/19 03:03:37;;;;;;;9.07;4.13;;;5.60;99.90;;;;;;5034251;28;20057;-79
2024/03/19 03:06:03;;;;;;;9.15;4.80;;;5.60;99.90;;;;;;5039204;28;20052;-80
2024/03/19 03:08:28;;;;;;;10.68;4.38;;;5.60;99.90;;;;;;5032049;28;20061;-79
2024/03/19 03:10:54;;;;;;;8.60;4.40;;;5.50;99.90;;;;;;5035165;28;20094;-79
2024/03/19 03:13:20;;;;;;;9.63;4.15;;;5.50;99.90;;;;;;5030445;28;20106;-80
2024/03/19 03:15:45;;;;;;;9.05;4.32;;;5.50;99.90;;;;;;5035434;28;20036;-80
2024/03/19 03:18:11;;;;;;;8.38;4.82;;;5.50;99.90;;;;;;5033118;28;20044;-80
2024/03/19 03:20:37;;;;;;;8.85;4.43;;;5.50;99.90;;;;;;5035005;28;20036;-80
2024/03/19 03:23:03;;;;;;;8.68;4.35;;;5.50;99.90;;;;;;5035296;28;20550;-80
2024/03/19 03:25:29;;;;;;;7.47;4.22;;;5.60;99.90;;;;;;5032202;28;20501;-79
2024/03/19 03:27:55;;;;;;;8.85;4.35;;;5.50;99.90;;;;;;5034063;28;20053;-79
2024/03/19 03:30:22;;;;;;;7.32;4.20;;;5.50;99.90;;;;;;5044971;28;20033;-80
2024/03/19 03:32:48;;;;;;;7.75;4.20;;;5.50;99.90;;;;;;5033793;28;20032;-79
2024/03/19 03:35:14;;;;;;;8.38;4.57;;;5.50;99.90;;;;;;5055209;28;20033;-79
2024/03/19 03:37:40;;;;;;;6.55;4.05;;;5.40;99.90;;;;;;5046728;28;20025;-80
2024/03/19 03:40:14;;;;;;;8.18;4.32;;;5.40;99.90;;;;;;5034691;28;20107;-80
2024/03/19 03:42:47;;;;;;;8.35;4.38;;;5.30;99.90;;;;;;5032641;28;20477;-80
2024/03/19 03:45:14;;;;;;;8.98;3.83;;;5.20;99.90;;;;;;5030270;28;20041;-79
2024/03/19 03:47:40;;;;;;;8.00;4.15;;;5.20;99.90;;;;;;5033474;28;20048;-79
2024/03/19 03:50:08;;;;;;;7.53;4.10;;;5.10;99.90;;;;;;5035147;28;20040;-80
2024/03/19 03:52:34;;;;;;;8.15;4.68;;;5.10;99.90;;;;;;5047599;28;20033;-80
2024/03/19 03:55:01;;;;;;;8.77;4.32;;;5.00;99.90;;;;;;5049546;28;20044;-80
2024/03/19 03:57:27;;;;;;;9.50;4.20;;;4.90;99.90;;;;;;5033688;28;20112;-80
2024/03/19 03:59:52;;;;;;;9.02;4.35;;;4.90;99.90;;;;;;5033390;28;20108;-80
2024/03/19 04:02:18;;;;;;;8.45;4.32;;;4.80;99.90;;;;;;5033316;28;20025;-80
2024/03/19 04:04:44;;;;;;;7.13;4.40;;;4.80;99.90;;;;;;5033246;28;20132;-80
2024/03/19 04:07:10;;;;;;;9.40;4.90;;;4.70;99.90;;;;;;5034458;28;20125;-79
2024/03/19 04:09:35;;;;;;;9.65;4.93;;;4.60;99.90;;;;;;5034188;28;20053;-80
2024/03/19 04:12:01;;;;;;;8.32;4.90;;;4.60;99.90;;;;;;5037532;28;20037;-80
2024/03/19 04:14:26;;;;;;;9.20;4.55;;;4.50;99.90;;;;;;5031639;28;20025;-79
2024/03/19 04:16:52;;;;;;;8.60;4.70;;;4.50;99.90;;;;;;5053675;28;20077;-80
2024/03/19 04:19:17;;;;;;;11.60;5.00;;;4.50;99.90;;;;;;5033350;28;20098;-79
2024/03/19 04:21:43;;;;;;;9.93;4.72;;;4.40;99.90;;;;;;5039446;28;20083;-79
2024/03/19 04:24:09;;;;;;;10.07;4.88;;;4.40;99.90;;;;;;5033678;28;20034;-79
2024/03/19 04:26:36;;;;;;;8.27;4.85;;;4.30;99.90;;;;;;5031598;28;20044;-80
2024/03/19 04:29:03;;;;;;;8.10;4.80;;;4.30;99.90;;;;;;5031935;28;20072;-80
2024/03/19 04:31:28;;;;;;;8.93;4.70;;;4.20;99.90;;;;;;5031402;28;20079;-80
2024/03/19 04:33:54;;;;;;;8.73;4.80;;;4.10;99.90;;;;;;5033776;28;20128;-80
2024/03/19 04:36:20;;;;;;;9.10;5.38;;;4.00;99.90;;;;;;5031757;28;20506;-79
2024/03/19 04:38:45;;;;;;;9.02;5.07;;;4.00;99.90;;;;;;5044727;28;20566;-79
2024/03/19 04:41:12;;;;;;;9.48;4.95;;;3.90;99.90;;;;;;5031045;28;20112;-80
2024/03/19 04:43:38;;;;;;;9.00;4.95;;;3.80;99.90;;;;;;5039102;28;20026;-80
2024/03/19 04:46:03;;;;;;;10.05;5.35;;;3.80;99.90;;;;;;5033534;28;20389;-80
2024/03/19 04:48:29;;;;;;;9.10;5.57;;;3.70;99.90;;;;;;5032835;28;20596;-80
2024/03/19 04:50:54;;;;;;;10.38;6.30;;;3.70;99.90;;;;;;5038892;28;20480;-80
2024/03/19 04:53:20;;;;;;;10.15;5.47;;;3.70;99.90;;;;;;5051854;28;20381;-80
2024/03/19 04:55:45;;;;;;;9.20;6.07;;;3.60;99.90;;;;;;5033456;28;20465;-80
2024/03/19 04:58:11;;;;;;;10.60;6.00;;;3.60;99.90;;;;;;5048552;28;20033;-80
2024/03/19 05:00:37;;;;;;;11.70;5.70;;;3.60;99.90;;;;;;5033113;28;20052;-79
2024/03/19 05:03:03;;;;;;;10.52;5.95;;;3.60;99.90;;;;;;5033324;28;20056;-80
2024/03/19 05:05:28;;;;;;;12.68;6.10;;;3.60;99.90;;;;;;5033174;28;20037;-80
2024/03/19 05:07:55;;;;;;;9.65;6.10;;;3.50;99.90;;;;;;5033494;28;20049;-80
2024/03/19 05:10:20;;;;;;;11.38;5.88;;;3.50;99.90;;;;;;5035490;28;20028;-79
2024/03/19 05:12:46;;;;;;;13.00;6.05;;;3.40;99.90;;;;;;5046730;28;20021;-80
2024/03/19 05:15:11;;;;;;;10.15;6.00;;;3.40;99.90;;;;;;5040993;28;20044;-80
2024/03/19 05:17:37;;;;;;;12.40;5.90;;;3.50;99.90;;;;;;5051303;28;20430;-80
2024/03/19 05:20:05;;;;;;;13.70;6.60;;;3.40;99.90;;;;;;5052308;28;20025;-79
2024/03/19 05:22:31;;;;;;;11.57;6.22;;;3.40;99.90;;;;;;5050504;28;20404;-79
2024/03/19 05:24:56;;;;;;;11.15;6.15;;;3.40;99.90;;;;;;5034011;28;20087;-79
2024/03/19 05:27:22;;;;;;;14.18;6.97;;;3.30;99.90;;;;;;5034499;28;20519;-79
2024/03/19 05:29:48;;;;;;;11.23;6.10;;;3.30;99.90;;;;;;5049529;28;20499;-79
2024/03/19 05:32:14;;;;;;;14.63;6.07;;;3.30;99.90;;;;;;5051399;28;20037;-79
2024/03/19 05:34:41;;;;;;;11.77;6.65;;;3.20;99.90;;;;;;5050019;28;20121;-79
2024/03/19 05:37:07;;;;;;;12.13;5.95;;;3.30;99.90;;;;;;5044557;28;20029;-79
2024/03/19 05:39:32;;;;;;;11.30;5.88;;;3.30;99.90;;;;;;5047838;28;20866;-78
2024/03/19 05:41:58;;;;;;;12.13;5.85;;;3.20;99.90;;;;;;5035263;28;20469;-79
2024/03/19 05:44:23;;;;;;;11.25;5.90;;;3.20;99.90;;;;;;5051895;28;20025;-79
2024/03/19 05:46:49;;;;;;;10.43;5.85;;;3.20;99.90;;;;;;5035891;28;20060;-78
2024/03/19 05:49:15;;;;;;;10.20;5.82;;;3.20;99.90;;;;;;5044883;28;20075;-79
2024/03/19 05:51:41;;;;;;;10.57;6.05;;;3.20;99.90;;;;;;5036768;28;20078;-78
2024/03/19 05:54:06;;;;;;;12.98;6.55;;;3.30;99.90;;;;;;5033585;28;20022;-78
2024/03/19 05:56:33;;;;;;;14.10;6.57;;;3.30;99.90;;;;;;5030579;28;20397;-78
2024/03/19 05:58:59;;;;;;;10.20;5.85;;;3.40;99.90;;;;;;5050827;28;20418;-80
2024/03/19 06:01:24;;;;;;;13.00;6.13;;;3.40;99.90;;;;;;5062740;28;20239;-78
2024/03/19 06:03:50;;;;;;;11.50;5.85;;;3.50;99.90;;;;;;5040701;28;20052;-78
2024/03/19 06:06:15;;;;;;;11.27;5.80;;;3.50;99.90;;;;;;5041325;28;20039;-78
2024/03/19 06:08:41;;;;;;;9.82;6.05;;;3.50;99.90;;;;;;5050821;28;20029;-79
2024/03/19 06:11:10;;;;;;;11.07;6.10;;;3.60;99.90;;;;;;5034148;28;20038;-79
2024/03/19 06:13:35;;;;;;;14.23;5.95;;;3.70;99.90;;;;;;5045070;28;20025;-78
2024/03/19 06:16:01;;;;;;;13.15;6.05;;;3.80;99.90;;;;;;5053022;28;20029;-80
2024/03/19 06:18:27;;;;;;;11.70;6.45;;;3.80;99.90;;;;;;5034948;28;20465;-78
2024/03/19 06:20:53;;;;;;;10.10;5.50;;;3.90;99.90;;;;;;5051385;28;20029;-78
2024/03/19 06:23:18;;;;;;;9.38;5.85;;;4.00;99.90;;;;;;5041064;28;20037;-78
2024/03/19 06:25:44;;;;;;;12.10;6.28;;;4.10;99.90;;;;;;5052548;28;20099;-79
2024/03/19 06:28:10;;;;;;;10.13;5.78;;;4.20;99.90;;;;;;5052006;28;20448;-78
2024/03/19 06:30:36;;;;;;;11.80;5.75;;;4.20;99.90;;;;;;5052114;28;20037;-80
2024/03/19 06:33:02;;;;;;;11.20;5.75;;;4.30;99.90;;;;;;5049001;28;20055;-79
2024/03/19 06:35:30;;;;;;;10.55;5.47;;;4.30;99.90;;;;;;5051676;28;20108;-78
2024/03/19 06:37:56;;;;;;;11.23;6.07;;;4.30;99.90;;;;;;5042633;28;20029;-80
2024/03/19 06:40:22;;;;;;;9.02;6.00;;;4.40;99.90;;;;;;5050330;28;20079;-81
2024/03/19 06:42:47;;;;;;;12.18;5.47;;;4.60;99.90;;;;;;5033887;28;20025;-83
2024/03/19 06:45:13;;;;;;;11.27;5.70;;;4.70;99.90;;;;;;5035839;28;20116;-81
2024/03/19 06:47:38;;;;;;;12.02;5.93;;;4.80;99.90;;;;;;5049626;28;20370;-80
2024/03/19 06:50:06;;;;;;;10.52;5.60;;;4.90;99.90;;;;;;5043536;28;20025;-81
2024/03/19 06:52:35;;;;;;;12.40;5.43;;;4.90;99.90;;;;;;5034380;28;20087;-81
2024/03/19 06:55:03;;;;;;;11.38;5.18;;;5.10;99.90;;;;;;5052452;28;20124;-81
2024/03/19 06:57:32;;;;;;;8.73;5.63;;;5.10;99.90;;;;;;5043043;28;20018;-78
2024/03/19 06:59:58;;;;;;;11.85;5.40;;;5.20;99.90;;;;;;5035424;28;20022;-78
2024/03/19 07:02:29;;;;;;;8.45;5.18;;;5.30;99.90;;;;;;5040091;28;20056;-78
2024/03/19 07:04:55;;;;;;;11.75;5.15;;;5.40;99.90;;;;;;5039286;28;20049;-77
2024/03/19 07:07:22;;;;;;;10.70;5.78;;;5.40;99.90;;;;;;5035008;28;20041;-80
2024/03/19 07:09:53;;;;;;;7.53;5.00;;;5.50;99.90;;;;;;5034632;28;20090;-80
2024/03/19 07:12:21;;;;;;;10.55;5.28;;;5.50;99.90;;;;;;5043190;28;20372;-80
2024/03/19 07:14:47;;;;;;;9.93;5.15;;;5.50;99.90;;;;;;5036580;28;20021;-80
2024/03/19 07:17:13;;;;;;;10.88;5.38;;;5.60;99.90;;;;;;5051307;28;20425;-78
2024/03/19 07:19:38;;;;;;;9.80;5.22;;;5.60;99.90;;;;;;5042738;28;20033;-80
2024/03/19 07:22:04;;;;;;;9.45;5.57;;;5.70;99.90;;;;;;5050379;28;20167;-79
2024/03/19 07:24:30;;;;;;;8.48;5.00;;;5.80;99.90;;;;;;5042456;28;20029;-77
2024/03/19 07:26:56;;;;;;;8.98;5.00;;;5.80;99.90;;;;;;5032958;28;20041;-76
2024/03/19 07:29:21;;;;;;;11.00;5.63;;;6.00;99.90;;;;;;5033838;28;20033;-75
2024/03/19 07:31:47;;;;;;;8.77;5.28;;;6.20;99.90;;;;;;5016794;28;20487;-75
2024/03/19 07:34:13;;;;;;;10.38;5.25;;;6.40;99.90;;;;;;5034873;28;20065;-76
2024/03/19 07:36:39;;;;;;;9.35;5.07;;;6.50;99.90;;;;;;5036779;28;20118;-76
2024/03/19 07:39:14;;;;;;;9.48;5.22;;;6.60;99.90;;;;;;5041107;28;20061;-80
2024/03/19 07:41:40;;;;;;;10.73;5.25;;;6.70;99.90;;;;;;5053920;28;20116;-79
2024/03/19 07:44:06;;;;;;;10.10;5.40;;;6.90;99.90;;;;;;5033109;28;20116;-79
2024/03/19 07:46:32;;;;;;;9.85;5.30;;;7.10;99.90;;;;;;5043076;28;20052;-80
2024/03/19 07:48:58;;;;;;;8.35;4.97;;;7.50;99.90;;;;;;5039042;28;20582;-81
2024/03/19 07:51:26;;;;;;;9.30;5.15;;;7.60;99.90;;;;;;5033717;28;20049;-79
2024/03/19 07:53:51;;;;;;;11.63;5.90;;;7.70;99.90;;;;;;5034535;28;20025;-78
2024/03/19 07:56:17;;;;;;;9.05;5.50;;;7.70;99.90;;;;;;5047076;28;20037;-79
2024/03/19 07:58:42;;;;;;;10.50;5.53;;;7.70;99.90;;;;;;5034407;28;20033;-78
2024/03/19 08:01:08;;;;;;;11.90;6.43;;;7.60;99.90;;;;;;5037070;28;20072;-79
2024/03/19 08:03:34;;;;;;;9.95;6.18;;;7.60;99.90;;;;;;5037724;28;20064;-79
2024/03/19 08:06:01;;;;;;;12.70;6.55;;;7.50;99.90;;;;;;5033224;28;20045;-78
2024/03/19 08:08:30;;;;;;;12.68;6.13;;;7.60;99.90;;;;;;5033555;28;20095;-80
2024/03/19 08:10:56;;;;;;;12.23;6.53;;;7.60;99.90;;;;;;5034698;28;20113;-80
2024/03/19 08:13:21;;;;;;;8.82;5.80;;;7.60;99.90;;;;;;5055461;28;20052;-79
2024/03/19 08:15:47;;;;;;;9.23;6.00;;;7.70;99.90;;;;;;5047785;28;20456;-79
2024/03/19 08:18:13;;;;;;;10.05;6.15;;;7.90;99.90;;;;;;5032648;28;20120;-78
2024/03/19 08:20:43;;;;;;;10.90;6.50;;;8.20;99.90;;;;;;5033405;28;20039;-79
2024/03/19 08:23:09;;;;;;;12.63;6.70;;;8.50;99.90;;;;;;5032376;28;20125;-78
2024/03/19 08:25:35;;;;;;;11.60;6.93;;;8.60;99.90;;;;;;5033284;28;20108;-78
2024/03/19 08:28:00;;;;;;;12.60;6.45;;;8.90;99.90;;;;;;5052586;28;20048;-79
2024/03/19 08:30:26;;;;;;;10.82;6.68;;;9.20;99.90;;;;;;5036258;28;20028;-79
2024/03/19 08:32:53;;;;;;;10.80;7.10;;;9.60;99.90;;;;;;5039340;28;20116;-79
2024/03/19 08:35:19;;;;;;;9.98;6.18;;;9.90;99.90;;;;;;5032140;28;20044;-79
2024/03/19 08:37:46;;;;;;;13.07;6.57;;;10.10;99.90;;;;;;5033594;28;20033;-78
2024/03/19 08:58:13;;;;;;;14.75;8.77;;;10.30;99.90;;;13.43;63.29;101109.50;4429908;27;1214430;-75
2024/03/19 09:00:39;;;;;;;13.40;8.50;;;10.70;99.90;;;13.50;61.99;101133.06;5088034;28;20045;-77
2024/03/19 09:03:08;;;;;;;14.50;8.27;;;10.80;99.90;;;13.56;62.58;101123.09;5073757;28;20043;-78
2024/03/19 09:05:33;;;;;;;14.35;8.63;;;10.90;99.90;;;14.22;61.87;101139.91;5069464;28;20043;-78
2024/03/19 09:07:59;;;;;;;18.20;10.07;;;11.10;99.90;;;13.66;62.32;101139.06;5076597;28;20387;-76
2024/03/19 09:10:25;;;;;;;16.27;9.48;;;11.00;99.90;;;13.48;63.59;101129.72;5071704;28;20040;-78
2024/03/19 09:12:50;;;;;;;16.85;10.02;;;10.80;99.90;;;13.55;66.05;101157.06;5073301;28;20051;-77
2024/03/19 09:15:16;;;;;;;16.23;9.38;;;10.70;99.90;;;13.52;67.24;101135.56;5079586;28;20032;-78
2024/03/19 09:17:42;;;;;;;16.45;10.10;;;10.80;99.90;;;14.07;67.51;101151.28;5039371;28;20041;-77
2024/03/19 09:20:11;;;;;;;20.58;10.70;;;11.10;99.90;;;13.92;64.82;101131.59;5065944;28;20116;-78
2024/03/19 09:22:37;;;;;;;20.55;11.38;;;11.40;99.90;;;14.03;64.68;101141.81;5060603;28;20037;-77
2024/03/19 09:25:03;;;;;;;18.65;11.00;;;11.40;99.90;;;14.09;65.44;101148.31;5067722;28;20036;-77
2024/03/19 09:27:29;;;;;;;21.67;10.85;;;;;;;14.53;64.23;101146.28;5066875;28;20032;-78
2024/03/19 09:29:56;;;;;;;18.00;9.77;;;;;;;14.88;63.59;101157.69;5086906;28;20040;-78
2024/03/19 09:32:22;;;;;;;21.40;11.07;;;11.40;99.90;;;14.63;62.06;101142.97;5062861;28;20032;-77
2024/03/19 09:34:48;;;;;;;20.42;11.05;;;12.20;99.90;;;15.22;61.08;101139.63;5082091;28;20028;-77
2024/03/19 09:37:15;;;;;;;18.10;10.68;;;12.40;99.90;;;16.01;59.06;101142.31;5084505;28;20040;-78
2024/03/19 09:39:41;;;;;;;18.45;10.70;;;12.80;99.90;;;16.54;56.53;101129.34;5063705;28;20368;-78
2024/03/19 09:42:14;;;;;;;17.50;11.15;;;;;;;16.81;57.45;101139.78;5067300;28;20482;-78
2024/03/19 09:44:44;;;;;;;19.20;11.30;;;;;;;17.86;53.06;101133.00;5081984;28;20047;-77
2024/03/19 09:47:18;;;;;;;18.90;11.27;;;;;;;17.80;52.24;101114.69;5049622;28;20377;-77
2024/03/19 09:49:45;;;;;;;19.65;11.25;;;;;;;18.40;49.91;101095.59;5070483;28;20032;-79
2024/03/19 09:52:13;;;;;;;27.75;12.63;;;;;;;18.41;49.67;101100.03;5036051;28;20464;-79
2024/03/19 09:54:40;;;;;;;23.17;13.27;;;;;;;18.34;51.08;101113.22;5068403;28;20119;-80
2024/03/19 09:57:14;;;;;;;24.27;14.30;;;;;;;17.13;53.44;101119.16;5060636;28;20044;-79
2024/03/19 09:59:41;;;;;;;24.63;15.13;;;;;;;16.14;58.19;101150.28;5028910;28;20048;-78
2024/03/19 10:02:18;;;;;;;26.15;14.85;;;;;;;16.67;57.74;101158.53;5057714;28;20531;-78
2024/03/19 10:04:48;;;;;;;25.92;14.90;;;;;;;17.40;58.73;101167.06;5065960;28;20036;-80
2024/03/19 10:07:21;;;;;;;24.10;14.38;;;;;;;17.47;56.28;101141.22;5054073;28;20403;-80
2024/03/19 10:09:51;;;;;;;24.77;14.32;;;;;;;17.54;55.25;101133.63;5051238;28;20039;-81
2024/03/19 10:12:17;;;;;;;25.88;15.07;;;;;;;17.39;55.04;101134.22;5069657;28;20107;-80
2024/03/19 10:14:44;;;;;;;25.10;14.27;;;;;;;18.01;55.28;101145.31;5068477;28;20037;-81
2024/03/19 10:17:14;;;;;;;24.00;14.82;;;;;;;18.86;51.60;101127.59;5070019;28;20044;-79
2024/03/19 10:19:40;;;;;;;22.65;14.23;;;;;;;18.55;52.50;101125.34;5068359;28;20048;-81
2024/03/19 10:22:11;;;;;;;25.50;15.05;;;;;;;19.02;48.96;101099.00;5047013;28;20028;-80
2024/03/19 10:24:37;;;;;;;25.63;14.32;;;;;;;19.24;50.55;101112.78;5047052;28;20044;-80
2024/03/19 10:27:09;;;;;;;24.58;14.77;;;;;;;19.29;49.39;101114.72;5066570;28;20064;-81
2024/03/19 10:29:36;;;;;;;25.52;14.38;;;;;;;19.51;49.16;101106.34;5067928;28;20078;-81
2024/03/19 10:32:09;;;;;;;24.70;14.40;;;;;;;19.77;48.38;101108.41;5049694;28;20033;-81
2024/03/19 10:34:36;;;;;;;23.83;14.35;;;;;;;19.93;48.23;101101.91;5051650;28;20514;-81
2024/03/19 10:37:03;;;;;;;25.98;14.60;;;;;;;19.19;49.45;101104.41;5058964;28;20510;-80
2024/03/19 10:39:33;;;;;;;25.17;15.13;;;;;;;19.31;50.05;101118.06;5045007;28;20505;-79
2024/03/19 10:42:03;;;;;;;25.30;14.55;;;;;;;20.70;47.56;101111.59;5064007;28;20086;-78
2024/03/19 10:44:35;;;;;;;25.20;14.82;;;;;;;21.01;47.29;101092.25;5066264;28;20525;-79
2024/03/19 10:47:01;;;;;;;27.00;15.63;;;;;;;21.02;46.51;101085.59;5051931;28;20055;-80
2024/03/19 10:49:30;;;;;;;23.45;15.30;;;;;;;20.67;46.06;101079.69;5067550;28;20487;-81
2024/03/19 10:52:15;;;;;;;24.67;15.07;;;;;;;20.93;45.38;101073.38;5061291;28;20048;-82
2024/03/19 10:54:44;;;;;;;27.38;16.17;;;;;;;21.38;45.63;101093.06;5065594;28;20044;-80
2024/03/19 10:57:16;;;;;;;23.75;14.77;;;;;;;21.01;45.49;101078.38;5053414;28;20037;-81
2024/03/19 10:59:43;;;;;;;25.80;16.05;;;;;;;20.57;47.18;101090.78;5051192;28;20053;-81
2024/03/19 11:02:16;;;;;;;26.05;15.45;;;;;;;21.68;45.12;101100.53;5035130;28;20040;-81
2024/03/19 11:04:42;;;;;;;23.05;14.45;;;;;;;22.22;41.94;101055.63;5055940;28;20151;-81
2024/03/19 11:07:23;;;;;;;26.90;15.43;;;;;;;22.29;42.76;101058.91;5055052;28;20024;-81
2024/03/19 11:09:53;;;;;;;24.73;15.50;;;;;;;21.41;44.22;101068.34;5043144;28;20036;-81
2024/03/19 11:12:24;;;;;;;26.73;15.60;;;;;;;22.12;43.73;101084.28;5059092;28;20039;-81
2024/03/19 11:14:59;;;;;;;25.13;15.65;;;;;;;22.13;43.27;101063.72;5029219;28;20037;-81
2024/03/19 11:17:28;;;;;;;23.55;15.05;;;;;;;21.35;44.72;101075.03;5025620;28;20484;-81
2024/03/19 11:19:56;;;;;;;25.05;15.70;;;;;;;20.42;46.73;101080.47;5028254;28;20045;-80
2024/03/19 11:22:25;;;;;;;23.65;15.05;;;;;;;20.94;46.41;101086.13;5028608;28;20044;-81
2024/03/19 11:24:51;;;;;;;25.05;16.08;;;;;;;20.76;45.86;101073.59;5047432;28;20037;-81
2024/03/19 11:27:18;;;;;;;26.77;16.08;;;;;;;20.44;47.03;101103.22;5048918;28;20092;-80
2024/03/19 11:29:46;;;;;;;25.83;16.45;;;;;;;20.69;46.57;101102.44;5049005;28;20041;-81
2024/03/19 11:32:23;;;;;;;25.48;15.68;;;;;;;21.20;46.85;101111.09;5031443;28;20075;-81
2024/03/19 11:34:51;;;;;;;25.70;15.68;;;;;;;21.35;45.36;101075.03;5046941;28;20095;-80
2024/03/19 11:37:18;;;;;;;26.08;15.90;;;;;;;21.68;44.53;101071.94;5050725;28;20460;-80
2024/03/19 11:39:44;;;;;;;26.27;16.27;;;;;;;22.04;43.51;101066.25;5031985;28;20032;-80
2024/03/19 11:42:13;;;;;;;27.75;16.27;;;;;;;21.72;44.51;101064.72;5051521;28;20063;-82
2024/03/19 11:44:40;;;;;;;27.40;16.85;;;;;;;21.17;45.15;101062.56;5050786;28;20108;-82
2024/03/19 11:47:06;;;;;;;26.38;15.48;;;;;;;21.35;46.13;101091.69;5051074;28;20033;-81
2024/03/19 11:49:32;;;;;;;24.55;15.05;;;;;;;21.58;45.93;101094.13;5051119;28;20041;-81
2024/03/19 11:52:05;;;;;;;23.65;14.35;;;;;;;22.22;42.68;101062.00;5051048;28;20029;-81
2024/03/19 11:54:40;;;;;;;23.30;14.77;;;;;;;22.03;43.52;101050.72;5031706;28;20464;-80
2024/03/19 11:57:07;;;;;;;24.23;14.52;;;;;;;22.72;41.90;101043.69;5046399;28;20722;-83
2024/03/19 11:59:34;;;;;;;26.60;15.77;;;;;;;21.72;43.56;101039.72;5052122;28;20501;-82
2024/03/19 12:02:00;;;;;;;26.13;15.10;;;;;;;21.07;44.22;101043.97;5054311;28;20037;-82
2024/03/19 12:04:27;;;;;;;26.65;16.52;;;;;;;22.24;44.48;101073.66;5053804;28;20036;-83
2024/03/19 12:06:54;;;;;;;23.75;15.02;;;;;;;22.78;42.95;101064.75;5051642;28;20040;-81
2024/03/19 12:09:22;;;;;;;27.95;15.77;;;;;;;23.02;40.78;101030.63;5049205;28;20204;-82
2024/03/19 12:11:50;;;;;;;22.75;15.65;;;;;;;22.31;42.61;101030.84;5050742;28;20048;-79
2024/03/19 12:14:20;;;;;;;26.13;16.52;;;;;;;21.77;43.96;101050.00;5050389;28;20104;-81
2024/03/19 12:16:48;;;;;;;27.48;16.42;;;;;;;20.51;45.57;101040.03;5049979;28;20052;-81
2024/03/19 12:19:15;;;;;;;26.80;15.52;;;;;;;20.50;47.75;101088.25;5050898;28;20029;-81
2024/03/19 12:21:43;;;;;;;27.92;16.42;;;;;;;20.69;47.71;101091.34;5048950;28;20071;-78
2024/03/19 12:24:13;;;;;;;;;;;;;;;19.76;49.16;101082.69;5048393;28;20101;-81
2024/03/19 12:26:43;;;;;;;27.42;15.35;;;;;;;20.24;48.95;101087.34;5049529;28;19924;-81
2024/03/19 12:29:13;;;;;;;28.20;15.77;;;;;;;20.41;48.34;101084.34;5046268;28;20045;-81
2024/03/19 12:31:59;;;;;;;30.67;17.38;;;;;;;20.40;49.65;101085.44;5049987;28;20040;-80